sensor_id;sensor_type;location;lat;lon;timestamp;pressure;altitude;pressure_sealevel;temperature;humidity
74435;BME280;62867;52.038;29.256;2022-08-19T00:03:15;1021.8;;;19.6;68
74435;BME280;62867;52.038;29.256;2022-08-19T00:08:33;1021.8;;;19.5;67.9
74435;BME280;62867;52.038;29.256;2022-08-19T00:13:35;1021.7;;;19.5;67.9
74435;BME280;62867;52.038;29.256;2022-08-19T00:18:27;1021.7;;;19.5;67.9
74435;BME280;62867;52.038;29.256;2022-08-19T00:23:19;1021.6;;;19.4;67.9
74435;BME280;62867;52.038;29.256;2022-08-19T00:28:35;1021.7;;;19.4;68
74435;BME280;62867;52.038;29.256;2022-08-19T00:33:33;1021.8;;;19.3;68.4
74435;BME280;62867;52.038;29.256;2022-08-19T00:38:35;1021.8;;;19.2;68.5
74435;BME280;62867;52.038;29.256;2022-08-19T00:43:07;1021.8;;;19.2;68.5
74435;BME280;62867;52.038;29.256;2022-08-19T00:48:13;1021.8;;;19.1;68.8
74435;BME280;62867;52.038;29.256;2022-08-19T00:53:05;1021.8;;;19.1;68.7
74435;BME280;62867;52.038;29.256;2022-08-19T00:58:22;1021.9;;;19.1;68.7
74435;BME280;62867;52.038;29.256;2022-08-19T01:03:16;1022;;;19.1;68.6
74435;BME280;62867;52.038;29.256;2022-08-19T01:08:07;1022;;;19;68.6
74435;BME280;62867;52.038;29.256;2022-08-19T01:13:17;1022;;;19;68.7
74435;BME280;62867;52.038;29.256;2022-08-19T01:18:35;1021.9;;;19;68.7
74435;BME280;62867;52.038;29.256;2022-08-19T01:23:21;1022;;;18.9;68.9
74435;BME280;62867;52.038;29.256;2022-08-19T01:28:33;1022;;;18.8;69.1
74435;BME280;62867;52.038;29.256;2022-08-19T01:33:27;1022;;;18.8;69.1
74435;BME280;62867;52.038;29.256;2022-08-19T01:38:08;1021.9;;;18.7;69.2
74435;BME280;62867;52.038;29.256;2022-08-19T01:43:13;1022;;;18.7;69.4
74435;BME280;62867;52.038;29.256;2022-08-19T01:48:27;1021.9;;;18.7;69.6
74435;BME280;62867;52.038;29.256;2022-08-19T01:53:37;1021.9;;;18.7;69.6
74435;BME280;62867;52.038;29.256;2022-08-19T01:58:24;1021.9;;;18.7;69.3
74435;BME280;62867;52.038;29.256;2022-08-19T02:03:24;1021.9;;;18.7;69.4
74435;BME280;62867;52.038;29.256;2022-08-19T02:08:23;1021.9;;;18.7;69.4
74435;BME280;62867;52.038;29.256;2022-08-19T02:13:15;1021.9;;;18.6;69.3
74435;BME280;62867;52.038;29.256;2022-08-19T02:18:17;1022;;;18.6;69.4
74435;BME280;62867;52.038;29.256;2022-08-19T02:23:37;1022;;;18.5;69.6
74435;BME280;62867;52.038;29.256;2022-08-19T02:27:55;1021.9;;;18.5;69.9
74435;BME280;62867;52.038;29.256;2022-08-19T02:32:55;1022;;;18.4;70
74435;BME280;62867;52.038;29.256;2022-08-19T02:37:55;1022.1;;;18.4;70.2
74435;BME280;62867;52.038;29.256;2022-08-19T02:43:35;1022.1;;;18.4;70.1
74435;BME280;62867;52.038;29.256;2022-08-19T02:48:25;1022.1;;;18.4;70.2
74435;BME280;62867;52.038;29.256;2022-08-19T02:53:17;1022.1;;;18.4;69.9
74435;BME280;62867;52.038;29.256;2022-08-19T02:58:19;1022.1;;;18.3;69.7
74435;BME280;62867;52.038;29.256;2022-08-19T03:03:35;1022.2;;;18.3;69.8
74435;BME280;62867;52.038;29.256;2022-08-19T03:08:35;1022.1;;;18.4;69.8
74435;BME280;62867;52.038;29.256;2022-08-19T03:13:07;1022.1;;;18.3;69.9
74435;BME280;62867;52.038;29.256;2022-08-19T03:18:07;1022.2;;;18.3;70.1
74435;BME280;62867;52.038;29.256;2022-08-19T03:22:55;1022.3;;;18.3;70.3
74435;BME280;62867;52.038;29.256;2022-08-19T03:28:21;1022.4;;;18.4;70.3
74435;BME280;62867;52.038;29.256;2022-08-19T03:33:13;1022.4;;;18.4;70.3
74435;BME280;62867;52.038;29.256;2022-08-19T03:38:13;1022.4;;;18.5;70.4
74435;BME280;62867;52.038;29.256;2022-08-19T03:43:27;1022.5;;;18.6;70.3
74435;BME280;62867;52.038;29.256;2022-08-19T03:48:35;1022.6;;;18.8;70
74435;BME280;62867;52.038;29.256;2022-08-19T03:53:23;1022.6;;;18.9;69.7
74435;BME280;62867;52.038;29.256;2022-08-19T03:58:37;1022.6;;;19.1;69.4
74435;BME280;62867;52.038;29.256;2022-08-19T04:03:35;1022.6;;;19.3;69
74435;BME280;62867;52.038;29.256;2022-08-19T04:08:35;1022.6;;;19.5;68.7
74435;BME280;62867;52.038;29.256;2022-08-19T04:12:55;1022.6;;;19.7;68.1
74435;BME280;62867;52.038;29.256;2022-08-19T04:18:27;1022.7;;;19.9;67.7
74435;BME280;62867;52.038;29.256;2022-08-19T04:23:37;1022.7;;;20.1;67.5
74435;BME280;62867;52.038;29.256;2022-08-19T04:28:21;1022.8;;;20.4;67.2
74435;BME280;62867;52.038;29.256;2022-08-19T04:33:31;1022.8;;;20.6;66.7
74435;BME280;62867;52.038;29.256;2022-08-19T04:38:25;1022.8;;;20.8;66.6
74435;BME280;62867;52.038;29.256;2022-08-19T04:43:25;1022.9;;;21.1;65.4
74435;BME280;62867;52.038;29.256;2022-08-19T04:47:55;1022.8;;;21.4;64.8
74435;BME280;62867;52.038;29.256;2022-08-19T04:53:21;1022.8;;;21.7;64.1
74435;BME280;62867;52.038;29.256;2022-08-19T04:57:55;1022.6;;;21.9;63.2
74435;BME280;62867;52.038;29.256;2022-08-19T05:02:55;1022.6;;;22.1;62
74435;BME280;62867;52.038;29.256;2022-08-19T05:08:07;1022.6;;;22.3;61.3
74435;BME280;62867;52.038;29.256;2022-08-19T05:13:37;1022.5;;;22.4;60.2
74435;BME280;62867;52.038;29.256;2022-08-19T05:18:37;1022.5;;;22.6;59.2
74435;BME280;62867;52.038;29.256;2022-08-19T05:23:19;1022.4;;;22.7;58.5
74435;BME280;62867;52.038;29.256;2022-08-19T05:27:55;1022.4;;;22.9;58
74435;BME280;62867;52.038;29.256;2022-08-19T05:33:35;1022.5;;;23;57.6
74435;BME280;62867;52.038;29.256;2022-08-19T05:38:37;1022.5;;;23.1;56.8
74435;BME280;62867;52.038;29.256;2022-08-19T05:42:55;1022.6;;;23.3;56.7
74435;BME280;62867;52.038;29.256;2022-08-19T05:48:07;1022.6;;;23.5;56.6
74435;BME280;62867;52.038;29.256;2022-08-19T05:53:09;1022.7;;;23.7;56.3
74435;BME280;62867;52.038;29.256;2022-08-19T05:57:55;1022.7;;;23.8;55.7
74435;BME280;62867;52.038;29.256;2022-08-19T06:03:11;1022.7;;;24;55.5
74435;BME280;62867;52.038;29.256;2022-08-19T06:08:07;1022.7;;;24.1;54.6
74435;BME280;62867;52.038;29.256;2022-08-19T06:13:27;1022.7;;;24.3;53.7
74435;BME280;62867;52.038;29.256;2022-08-19T06:18:05;1022.8;;;24.4;53.3
74435;BME280;62867;52.038;29.256;2022-08-19T06:23:19;1022.9;;;24.6;53
74435;BME280;62867;52.038;29.256;2022-08-19T06:28:33;1022.9;;;24.8;52.2
74435;BME280;62867;52.038;29.256;2022-08-19T06:33:23;1022.9;;;24.9;52.1
74435;BME280;62867;52.038;29.256;2022-08-19T06:38:07;1022.9;;;25.1;51.4
74435;BME280;62867;52.038;29.256;2022-08-19T06:43:07;1023;;;25.3;51.5
74435;BME280;62867;52.038;29.256;2022-08-19T06:48:19;1023;;;25.6;51.6
74435;BME280;62867;52.038;29.256;2022-08-19T06:53:33;1023;;;25.8;51.3
74435;BME280;62867;52.038;29.256;2022-08-19T06:58:21;1022.9;;;26;50.9
74435;BME280;62867;52.038;29.256;2022-08-19T07:03:31;1022.9;;;26.3;50.6
74435;BME280;62867;52.038;29.256;2022-08-19T07:08:25;1022.9;;;26.5;50.3
74435;BME280;62867;52.038;29.256;2022-08-19T07:13:25;1022.8;;;26.8;49.3
74435;BME280;62867;52.038;29.256;2022-08-19T07:18:13;1022.8;;;27;48.4
74435;BME280;62867;52.038;29.256;2022-08-19T07:23:22;1022.7;;;27.2;48
74435;BME280;62867;52.038;29.256;2022-08-19T07:27:55;1022.7;;;27.4;47.8
74435;BME280;62867;52.038;29.256;2022-08-19T07:33:05;1022.7;;;27.6;47.7
74435;BME280;62867;52.038;29.256;2022-08-19T07:38:07;1022.8;;;27.8;46.8
74435;BME280;62867;52.038;29.256;2022-08-19T07:43:33;1022.7;;;28;46.9
74435;BME280;62867;52.038;29.256;2022-08-19T07:48:31;1022.8;;;28.3;46.5
74435;BME280;62867;52.038;29.256;2022-08-19T07:52:55;1022.8;;;28.4;46.5
74435;BME280;62867;52.038;29.256;2022-08-19T07:58:05;1022.9;;;28.6;45.9
74435;BME280;62867;52.038;29.256;2022-08-19T08:03:33;1022.9;;;28.7;45.4
74435;BME280;62867;52.038;29.256;2022-08-19T08:08:35;1022.9;;;28.8;44.9
74435;BME280;62867;52.038;29.256;2022-08-19T08:13:15;1022.9;;;28.9;44.2
74435;BME280;62867;52.038;29.256;2022-08-19T08:18:07;1022.8;;;28.9;44.2
74435;BME280;62867;52.038;29.256;2022-08-19T08:23:25;1022.8;;;29.1;44.7
74435;BME280;62867;52.038;29.256;2022-08-19T08:27:55;1022.8;;;29.2;43.8
74435;BME280;62867;52.038;29.256;2022-08-19T08:33:20;1022.7;;;29.3;43.3
74435;BME280;62867;52.038;29.256;2022-08-19T08:38:15;1022.7;;;29.3;43.5
74435;BME280;62867;52.038;29.256;2022-08-19T08:43:29;1022.7;;;29.6;43.2
74435;BME280;62867;52.038;29.256;2022-08-19T08:48:30;1022.8;;;29.7;42.7
74435;BME280;62867;52.038;29.256;2022-08-19T08:53:21;1022.9;;;29.8;42.5
74435;BME280;62867;52.038;29.256;2022-08-19T08:58:42;1022.9;;;29.8;42.6
74435;BME280;62867;52.038;29.256;2022-08-19T09:03:25;1023;;;30.1;42.2
74435;BME280;62867;52.038;29.256;2022-08-19T09:08:08;1023;;;30.3;41
74435;BME280;62867;52.038;29.256;2022-08-19T09:17:58;1023;;;31;41.1
74435;BME280;62867;52.038;29.256;2022-08-19T09:23:21;1022.9;;;31.2;39.5
74435;BME280;62867;52.038;29.256;2022-08-19T09:28:19;1022.9;;;31.4;39.4
74435;BME280;62867;52.038;29.256;2022-08-19T09:33:31;1022.9;;;31.6;39.8
74435;BME280;62867;52.038;29.256;2022-08-19T09:38:25;1022.9;;;31.7;39.8
74435;BME280;62867;52.038;29.256;2022-08-19T09:43:25;1022.9;;;31.6;40
74435;BME280;62867;52.038;29.256;2022-08-19T09:48:07;1022.9;;;31.7;39.2
74435;BME280;62867;52.038;29.256;2022-08-19T09:53:21;1022.9;;;31.9;38
74435;BME280;62867;52.038;29.256;2022-08-19T09:57:55;1022.9;;;32;38
74435;BME280;62867;52.038;29.256;2022-08-19T10:03:07;1022.9;;;31.9;38
74435;BME280;62867;52.038;29.256;2022-08-19T10:07:55;1022.9;;;32.1;36.9
74435;BME280;62867;52.038;29.256;2022-08-19T10:13:28;1022.9;;;32.1;36.5
74435;BME280;62867;52.038;29.256;2022-08-19T10:18:33;1022.9;;;32.3;36.2
74435;BME280;62867;52.038;29.256;2022-08-19T10:23:07;1022.9;;;32.5;36.5
74435;BME280;62867;52.038;29.256;2022-08-19T10:28:19;1022.9;;;32.5;36.5
74435;BME280;62867;52.038;29.256;2022-08-19T10:33:31;1022.9;;;32.7;35.7
74435;BME280;62867;52.038;29.256;2022-08-19T10:38:35;1022.9;;;33;34.8
74435;BME280;62867;52.038;29.256;2022-08-19T10:43:01;1022.9;;;33;35
74435;BME280;62867;52.038;29.256;2022-08-19T10:47:55;1022.9;;;33.5;34.3
74435;BME280;62867;52.038;29.256;2022-08-19T10:53:09;1023;;;33.2;34.6
74435;BME280;62867;52.038;29.256;2022-08-19T10:57:55;1023;;;33;35.3
74435;BME280;62867;52.038;29.256;2022-08-19T11:02:55;1023;;;32.8;35.4
74435;BME280;62867;52.038;29.256;2022-08-19T11:08:01;1023.1;;;32.1;36.5
74435;BME280;62867;52.038;29.256;2022-08-19T11:13:25;1023.1;;;31.7;36.5
74435;BME280;62867;52.038;29.256;2022-08-19T11:18:27;1023.1;;;32.4;36.6
74435;BME280;62867;52.038;29.256;2022-08-19T11:23:19;1023.1;;;32.9;35.4
74435;BME280;62867;52.038;29.256;2022-08-19T11:28:37;1023.2;;;32.3;35.8
74435;BME280;62867;52.038;29.256;2022-08-19T11:33:25;1023.1;;;32.5;35.3
74435;BME280;62867;52.038;29.256;2022-08-19T11:38:11;1023.1;;;32.3;36.6
74435;BME280;62867;52.038;29.256;2022-08-19T11:43:07;1023.2;;;32.2;35.8
74435;BME280;62867;52.038;29.256;2022-08-19T11:47:55;1023.2;;;31.7;36.6
74435;BME280;62867;52.038;29.256;2022-08-19T11:53:31;1023.2;;;31.8;36.5
74435;BME280;62867;52.038;29.256;2022-08-19T11:58:17;1023.3;;;31.6;36.8
74435;BME280;62867;52.038;29.256;2022-08-19T12:03:35;1023.3;;;31.1;37.3
74435;BME280;62867;52.038;29.256;2022-08-19T12:08:25;1023.3;;;30.7;38.3
74435;BME280;62867;52.038;29.256;2022-08-19T12:13:25;1023.2;;;30.5;38.7
74435;BME280;62867;52.038;29.256;2022-08-19T12:17:56;1023.2;;;30.2;39.5
74435;BME280;62867;52.038;29.256;2022-08-19T12:23:21;1023.1;;;29.9;40
74435;BME280;62867;52.038;29.256;2022-08-19T12:28:05;1023.2;;;29.5;40.9
74435;BME280;62867;52.038;29.256;2022-08-19T12:32:55;1023.2;;;29.3;41.1
74435;BME280;62867;52.038;29.256;2022-08-19T12:38:01;1023.2;;;29;41.9
74435;BME280;62867;52.038;29.256;2022-08-19T12:43:35;1023.2;;;28.9;42.3
74435;BME280;62867;52.038;29.256;2022-08-19T12:48:33;1023.3;;;28.7;42.5
74435;BME280;62867;52.038;29.256;2022-08-19T12:53:25;1023.2;;;28.4;42.7
74435;BME280;62867;52.038;29.256;2022-08-19T12:57:55;1023.3;;;28.2;43.2
74435;BME280;62867;52.038;29.256;2022-08-19T13:03:19;1023.3;;;28.1;44
74435;BME280;62867;52.038;29.256;2022-08-19T13:08:33;1023.3;;;28.2;44.1
74435;BME280;62867;52.038;29.256;2022-08-19T13:13:33;1023.3;;;28.2;43.6
74435;BME280;62867;52.038;29.256;2022-08-19T13:18:15;1023.3;;;28.1;44.1
74435;BME280;62867;52.038;29.256;2022-08-19T13:22:55;1023.4;;;28.3;43.6
74435;BME280;62867;52.038;29.256;2022-08-19T13:27:55;1023.3;;;28.8;42.4
74435;BME280;62867;52.038;29.256;2022-08-19T13:33:19;1023.3;;;28.9;42.6
74435;BME280;62867;52.038;29.256;2022-08-19T13:38:01;1023.4;;;28.5;42.8
74435;BME280;62867;52.038;29.256;2022-08-19T13:42:55;1023.5;;;28;44.2
74435;BME280;62867;52.038;29.256;2022-08-19T13:48:25;1023.5;;;27.6;44.6
74435;BME280;62867;52.038;29.256;2022-08-19T13:53:33;1023.4;;;27.3;45.1
74435;BME280;62867;52.038;29.256;2022-08-19T13:58:21;1023.4;;;27.1;45.6
74435;BME280;62867;52.038;29.256;2022-08-19T14:03:33;1023.4;;;27;46
74435;BME280;62867;52.038;29.256;2022-08-19T14:08:33;1023.4;;;26.9;46
74435;BME280;62867;52.038;29.256;2022-08-19T14:13:02;1023.4;;;27;46
74435;BME280;62867;52.038;29.256;2022-08-19T14:18:10;1023.3;;;27;47
74435;BME280;62867;52.038;29.256;2022-08-19T14:23:15;1023.3;;;27;47.2
74435;BME280;62867;52.038;29.256;2022-08-19T14:28:33;1023.3;;;27.1;46.6
74435;BME280;62867;52.038;29.256;2022-08-19T14:33:17;1023.3;;;27;46.9
74435;BME280;62867;52.038;29.256;2022-08-19T14:38:27;1023.3;;;27.1;48.1
74435;BME280;62867;52.038;29.256;2022-08-19T14:43:25;1023.3;;;27.1;47.3
74435;BME280;62867;52.038;29.256;2022-08-19T14:48:15;1023.3;;;27.1;47.8
74435;BME280;62867;52.038;29.256;2022-08-19T14:53:15;1023.3;;;27.2;48
74435;BME280;62867;52.038;29.256;2022-08-19T14:58:21;1023.3;;;27.2;48.8
74435;BME280;62867;52.038;29.256;2022-08-19T15:03:19;1023.4;;;27.2;47.8
74435;BME280;62867;52.038;29.256;2022-08-19T15:08:07;1023.4;;;27.1;47.8
74435;BME280;62867;52.038;29.256;2022-08-19T15:13:13;1023.3;;;27;48.4
74435;BME280;62867;52.038;29.256;2022-08-19T15:18:35;1023.3;;;27;49
74435;BME280;62867;52.038;29.256;2022-08-19T15:23:27;1023.3;;;26.9;49.3
74435;BME280;62867;52.038;29.256;2022-08-19T15:28:19;1023.3;;;26.8;48.8
74435;BME280;62867;52.038;29.256;2022-08-19T15:33:23;1023.3;;;26.8;49.1
74435;BME280;62867;52.038;29.256;2022-08-19T15:38:35;1023.3;;;26.7;49.2
74435;BME280;62867;52.038;29.256;2022-08-19T15:43:33;1023.2;;;26.6;50
74435;BME280;62867;52.038;29.256;2022-08-19T15:48:13;1023.1;;;26.6;49.8
74435;BME280;62867;52.038;29.256;2022-08-19T15:53:09;1023.1;;;26.5;50.5
74435;BME280;62867;52.038;29.256;2022-08-19T15:58:19;1023.1;;;26.4;50.7
74435;BME280;62867;52.038;29.256;2022-08-19T16:03:17;1023.1;;;26.4;51.1
74435;BME280;62867;52.038;29.256;2022-08-19T16:08:19;1023.1;;;26.3;51.2
74435;BME280;62867;52.038;29.256;2022-08-19T16:12:55;1023.1;;;26.3;51.8
74435;BME280;62867;52.038;29.256;2022-08-19T16:18:27;1023.1;;;26.1;52.6
74435;BME280;62867;52.038;29.256;2022-08-19T16:23:34;1023.1;;;26;52.9
74435;BME280;62867;52.038;29.256;2022-08-19T16:28:21;1023.2;;;25.9;53.1
74435;BME280;62867;52.038;29.256;2022-08-19T16:33:33;1023.2;;;25.8;52.7
74435;BME280;62867;52.038;29.256;2022-08-19T16:38:35;1023.3;;;25.6;53.6
74435;BME280;62867;52.038;29.256;2022-08-19T16:42:55;1023.3;;;25.5;54
74435;BME280;62867;52.038;29.256;2022-08-19T16:48:07;1023.4;;;25.4;54.3
74435;BME280;62867;52.038;29.256;2022-08-19T16:53:27;1023.4;;;25.3;54.9
74435;BME280;62867;52.038;29.256;2022-08-19T16:58:35;1023.5;;;25.1;55.5
74435;BME280;62867;52.038;29.256;2022-08-19T17:03:19;1023.5;;;25;55.3
74435;BME280;62867;52.038;29.256;2022-08-19T17:08:33;1023.5;;;24.8;56
74435;BME280;62867;52.038;29.256;2022-08-19T17:13:27;1023.6;;;24.6;57
74435;BME280;62867;52.038;29.256;2022-08-19T17:18:25;1023.6;;;24.4;57.4
74435;BME280;62867;52.038;29.256;2022-08-19T17:23:13;1023.7;;;24.2;58.4
74435;BME280;62867;52.038;29.256;2022-08-19T17:28:23;1023.6;;;23.9;59.2
74435;BME280;62867;52.038;29.256;2022-08-19T17:33:05;1023.6;;;23.7;59.4
74435;BME280;62867;52.038;29.256;2022-08-19T17:38:05;1023.6;;;23.5;59.8
74435;BME280;62867;52.038;29.256;2022-08-19T17:43:01;1023.6;;;23.3;60.1
74435;BME280;62867;52.038;29.256;2022-08-19T17:48:33;1023.6;;;23.1;60.4
74435;BME280;62867;52.038;29.256;2022-08-19T17:53:33;1023.6;;;23;60.8
74435;BME280;62867;52.038;29.256;2022-08-19T17:58:19;1023.6;;;22.9;61
74435;BME280;62867;52.038;29.256;2022-08-19T18:02:56;1023.6;;;22.7;61.8
74435;BME280;62867;52.038;29.256;2022-08-19T18:08:35;1023.5;;;22.6;62.6
74435;BME280;62867;52.038;29.256;2022-08-19T18:13:33;1023.6;;;22.5;63.3
74435;BME280;62867;52.038;29.256;2022-08-19T18:18:15;1023.6;;;22.5;63.8
74435;BME280;62867;52.038;29.256;2022-08-19T18:23:07;1023.6;;;22.4;64.3
74435;BME280;62867;52.038;29.256;2022-08-19T18:28:21;1023.6;;;22.4;64.5
74435;BME280;62867;52.038;29.256;2022-08-19T18:32:55;1023.5;;;22.5;64.4
74435;BME280;62867;52.038;29.256;2022-08-19T18:38:16;1023.5;;;22.6;64.1
74435;BME280;62867;52.038;29.256;2022-08-19T18:43:15;1023.5;;;22.7;63.5
74435;BME280;62867;52.038;29.256;2022-08-19T18:48:27;1023.4;;;22.8;63.2
74435;BME280;62867;52.038;29.256;2022-08-19T18:53:27;1023.4;;;22.9;63.4
74435;BME280;62867;52.038;29.256;2022-08-19T18:58:28;1023.4;;;22.9;63.3
74435;BME280;62867;52.038;29.256;2022-08-19T19:03:33;1023.3;;;22.9;62.5
74435;BME280;62867;52.038;29.256;2022-08-19T19:08:25;1023.4;;;22.8;63
74435;BME280;62867;52.038;29.256;2022-08-19T19:13:07;1023.3;;;22.7;63
74435;BME280;62867;52.038;29.256;2022-08-19T19:17:55;1023.3;;;22.5;63.5
74435;BME280;62867;52.038;29.256;2022-08-19T19:23:09;1023.3;;;22.3;63.9
74435;BME280;62867;52.038;29.256;2022-08-19T19:28:33;1023.3;;;22.1;64.2
74435;BME280;62867;52.038;29.256;2022-08-19T19:33:17;1023.3;;;22;64.8
74435;BME280;62867;52.038;29.256;2022-08-19T19:38:31;1023.3;;;21.9;64.9
74435;BME280;62867;52.038;29.256;2022-08-19T19:43:25;1023.3;;;21.7;65
74435;BME280;62867;52.038;29.256;2022-08-19T19:48:27;1023.2;;;21.6;65.1
74435;BME280;62867;52.038;29.256;2022-08-19T19:53:07;1023.2;;;21.5;65.3
74435;BME280;62867;52.038;29.256;2022-08-19T19:58:21;1023.2;;;21.4;66.1
74435;BME280;62867;52.038;29.256;2022-08-19T20:03:05;1023.2;;;21.2;66.2
74435;BME280;62867;52.038;29.256;2022-08-19T20:07:55;1023.2;;;21.1;66.4
74435;BME280;62867;52.038;29.256;2022-08-19T20:13:07;1023.2;;;21;66.7
74435;BME280;62867;52.038;29.256;2022-08-19T20:18:33;1023.3;;;20.9;66.9
74435;BME280;62867;52.038;29.256;2022-08-19T20:23:33;1023.3;;;20.8;67.2
74435;BME280;62867;52.038;29.256;2022-08-19T20:28:19;1023.2;;;20.7;67.2
74435;BME280;62867;52.038;29.256;2022-08-19T20:33:17;1023.2;;;20.6;67.1
74435;BME280;62867;52.038;29.256;2022-08-19T20:38:33;1023.2;;;20.5;67.3
74435;BME280;62867;52.038;29.256;2022-08-19T20:43:33;1023.1;;;20.5;67.5
74435;BME280;62867;52.038;29.256;2022-08-19T20:48:21;1023;;;20.4;67.5
74435;BME280;62867;52.038;29.256;2022-08-19T20:53:08;1023;;;20.4;67.6
74435;BME280;62867;52.038;29.256;2022-08-19T20:58:07;1022.9;;;20.2;67.9
74435;BME280;62867;52.038;29.256;2022-08-19T21:02:55;1023;;;20.1;68
74435;BME280;62867;52.038;29.256;2022-08-19T21:08:15;1023;;;20.1;68.3
74435;BME280;62867;52.038;29.256;2022-08-19T21:13:13;1023;;;20;68.6
74435;BME280;62867;52.038;29.256;2022-08-19T21:18:25;1023;;;20;68.7
74435;BME280;62867;52.038;29.256;2022-08-19T21:23:26;1022.9;;;20;68.9
74435;BME280;62867;52.038;29.256;2022-08-19T21:28:33;1022.9;;;19.9;68.7
74435;BME280;62867;52.038;29.256;2022-08-19T21:33:31;1023;;;19.9;68.7
74435;BME280;62867;52.038;29.256;2022-08-19T21:38:31;1023;;;19.9;68.8
74435;BME280;62867;52.038;29.256;2022-08-19T21:43:34;1023;;;19.9;68.7
74435;BME280;62867;52.038;29.256;2022-08-19T21:48:07;1023;;;19.9;68.6
74435;BME280;62867;52.038;29.256;2022-08-19T21:52:55;1023;;;19.8;68.6
74435;BME280;62867;52.038;29.256;2022-08-19T21:58:25;1023;;;19.7;68.9
74435;BME280;62867;52.038;29.256;2022-08-19T22:03:32;1022.9;;;19.7;68.7
74435;BME280;62867;52.038;29.256;2022-08-19T22:08:13;1022.9;;;19.6;68.8
74435;BME280;62867;52.038;29.256;2022-08-19T22:13:24;1022.9;;;19.5;69.1
74435;BME280;62867;52.038;29.256;2022-08-19T22:18:33;1022.9;;;19.5;69.1
74435;BME280;62867;52.038;29.256;2022-08-19T22:23:15;1022.9;;;19.4;69.1
74435;BME280;62867;52.038;29.256;2022-08-19T22:28:14;1022.9;;;19.4;68.8
74435;BME280;62867;52.038;29.256;2022-08-19T22:33:06;1022.8;;;19.3;68.8
74435;BME280;62867;52.038;29.256;2022-08-19T22:37:56;1022.8;;;19.3;68.7
74435;BME280;62867;52.038;29.256;2022-08-19T22:43:10;1022.9;;;19.2;68.8
74435;BME280;62867;52.038;29.256;2022-08-19T22:48:12;1022.8;;;19.2;69.2
74435;BME280;62867;52.038;29.256;2022-08-19T22:53:30;1022.8;;;19.1;69.6
74435;BME280;62867;52.038;29.256;2022-08-19T22:58:19;1022.8;;;19;69.3
74435;BME280;62867;52.038;29.256;2022-08-19T23:03:17;1022.7;;;18.9;69.8
74435;BME280;62867;52.038;29.256;2022-08-19T23:08:05;1022.8;;;18.9;69.5
74435;BME280;62867;52.038;29.256;2022-08-19T23:13:29;1022.8;;;18.8;69.6
74435;BME280;62867;52.038;29.256;2022-08-19T23:18:29;1022.8;;;18.8;69.5
74435;BME280;62867;52.038;29.256;2022-08-19T23:23:15;1022.9;;;18.7;69.6
74435;BME280;62867;52.038;29.256;2022-08-19T23:27:55;1022.9;;;18.7;69.7
74435;BME280;62867;52.038;29.256;2022-08-19T23:33:19;1022.8;;;18.7;69.8
74435;BME280;62867;52.038;29.256;2022-08-19T23:38:17;1022.7;;;18.6;69.6
74435;BME280;62867;52.038;29.256;2022-08-19T23:43:11;1022.7;;;18.6;69.5
74435;BME280;62867;52.038;29.256;2022-08-19T23:48:14;1022.8;;;18.5;69.6
74435;BME280;62867;52.038;29.256;2022-08-19T23:53:26;1022.8;;;18.4;69.8
74435;BME280;62867;52.038;29.256;2022-08-19T23:58:29;1022.7;;;18.3;70.1
